TimeEST,TemperatureF,Dew PointF,Humidity,Sea Level PressureIn,VisibilityMPH,Wind Direction,Wind SpeedMPH,Gust SpeedMPH,PrecipitationIn,Events,Conditions,WindDirDegrees,DateUTC
12:13 AM,24.8,17.6,74,30.09,10.0,WNW,5.8,-,N/A,,Scattered Clouds,290,2013-02-16 05:13:00
1:54 AM,21.2,17.6,86,30.08,10.0,West,4.6,-,N/A,,Clear,270,2013-02-16 06:54:00
2:14 AM,21.2,17.6,86,30.07,10.0,West,3.5,-,N/A,,Clear,270,2013-02-16 07:14:00
2:34 AM,21.2,17.6,86,30.07,10.0,West,3.5,-,N/A,,Clear,270,2013-02-16 07:34:00
2:54 AM,21.2,17.6,86,30.07,10.0,West,3.5,-,N/A,,Scattered Clouds,270,2013-02-16 07:54:00
3:14 AM,23.0,17.6,80,30.06,10.0,Calm,Calm,-,N/A,,Overcast,0,2013-02-16 08:14:00
3:34 AM,21.2,17.6,86,30.06,10.0,West,4.6,-,N/A,,Scattered Clouds,260,2013-02-16 08:34:00
3:54 AM,21.2,17.6,86,30.05,10.0,Calm,Calm,-,N/A,,Mostly Cloudy,0,2013-02-16 08:54:00
4:14 AM,21.2,17.6,86,30.04,10.0,Calm,Calm,-,N/A,,Overcast,0,2013-02-16 09:14:00
4:34 AM,23.0,17.6,80,30.04,10.0,Calm,Calm,-,N/A,,Overcast,0,2013-02-16 09:34:00
4:55 AM,23.0,17.6,80,30.04,10.0,West,3.5,-,N/A,,Overcast,270,2013-02-16 09:55:00
5:15 AM,23.0,19.4,86,30.04,10.0,Calm,Calm,-,N/A,,Overcast,0,2013-02-16 10:15:00
5:35 AM,23.0,17.6,80,30.04,10.0,West,3.5,-,N/A,,Overcast,270,2013-02-16 10:35:00
5:55 AM,24.8,17.6,74,30.04,10.0,Calm,Calm,-,N/A,,Overcast,0,2013-02-16 10:55:00
6:15 AM,23.0,17.6,80,30.03,10.0,Calm,Calm,-,N/A,,Overcast,0,2013-02-16 11:15:00
6:35 AM,21.2,17.6,86,30.03,10.0,Calm,Calm,-,N/A,,Mostly Cloudy,0,2013-02-16 11:35:00
6:55 AM,21.2,17.6,86,30.03,10.0,Calm,Calm,-,N/A,,Scattered Clouds,0,2013-02-16 11:55:00
7:15 AM,19.4,17.6,93,30.03,10.0,Calm,Calm,-,N/A,,Scattered Clouds,0,2013-02-16 12:15:00
7:35 AM,19.4,17.6,93,30.03,10.0,Calm,Calm,-,N/A,,Mostly Cloudy,0,2013-02-16 12:35:00
8:31 AM,23.0,19.4,86,30.03,10.0,Calm,Calm,-,N/A,,Overcast,0,2013-02-16 13:31:00
8:51 AM,24.8,19.4,80,30.03,10.0,Calm,Calm,-,N/A,,Overcast,0,2013-02-16 13:51:00
9:11 AM,24.8,17.6,74,30.03,10.0,SW,3.5,-,N/A,,Overcast,230,2013-02-16 14:11:00
9:31 AM,24.8,17.6,74,30.02,7.0,SSW,4.6,-,N/A,Snow,Light Snow,200,2013-02-16 14:31:00
9:51 AM,24.8,19.4,80,30.02,7.0,SSW,3.5,-,N/A,Snow,Light Snow,210,2013-02-16 14:51:00
10:31 AM,26.6,21.2,80,30.01,10.0,SSW,8.1,-,N/A,,Overcast,200,2013-02-16 15:31:00
10:51 AM,28.4,19.4,69,30.01,10.0,South,5.8,-,N/A,,Overcast,190,2013-02-16 15:51:00
11:32 AM,24.8,21.2,86,30.00,0.8,SW,4.6,-,N/A,Snow,Light Snow,220,2013-02-16 16:32:00
12:12 PM,26.6,23.0,86,29.99,0.2,West,10.4,-,N/A,Snow,Light Snow,270,2013-02-16 17:12:00
12:32 PM,24.8,21.2,86,30.00,1.8,WNW,13.8,-,N/A,Snow,Light Snow,290,2013-02-16 17:32:00
12:52 PM,24.8,21.2,86,29.99,7.0,NW,9.2,-,N/A,Snow,Light Snow,320,2013-02-16 17:52:00
1:12 PM,28.4,21.2,74,29.98,10.0,WNW,11.5,16.1,N/A,,Mostly Cloudy,290,2013-02-16 18:12:00
1:32 PM,28.4,19.4,69,29.97,10.0,WNW,13.8,-,N/A,,Mostly Cloudy,290,2013-02-16 18:32:00
1:52 PM,28.4,19.4,69,29.97,10.0,WNW,12.7,-,N/A,,Mostly Cloudy,290,2013-02-16 18:52:00
2:12 PM,28.4,17.6,64,29.96,10.0,WNW,15.0,19.6,N/A,,Mostly Cloudy,290,2013-02-16 19:12:00
2:33 PM,28.4,17.6,64,29.96,10.0,West,13.8,19.6,N/A,,Mostly Cloudy,280,2013-02-16 19:33:00
2:53 PM,28.4,17.6,64,29.96,10.0,West,12.7,-,N/A,,Mostly Cloudy,270,2013-02-16 19:53:00
3:13 PM,26.6,19.4,74,29.96,3.0,West,11.5,-,N/A,Snow,Light Snow,270,2013-02-16 20:13:00
3:33 PM,26.6,19.4,74,29.96,5.0,West,10.4,-,N/A,Snow,Light Snow,280,2013-02-16 20:33:00
4:13 PM,26.6,15.8,64,29.97,10.0,WNW,10.4,17.3,N/A,,Overcast,300,2013-02-16 21:13:00
4:53 PM,26.6,12.2,55,29.98,10.0,WNW,12.7,-,N/A,,Overcast,300,2013-02-16 21:53:00
5:13 PM,26.6,15.8,64,29.98,10.0,WNW,13.8,19.6,N/A,,Scattered Clouds,290,2013-02-16 22:13:00
5:34 PM,24.8,10.4,54,29.99,10.0,WNW,13.8,-,N/A,,Clear,290,2013-02-16 22:34:00
5:54 PM,24.8,12.2,59,30.00,10.0,WNW,13.8,19.6,N/A,,Clear,300,2013-02-16 22:54:00
6:14 PM,23.0,14.0,68,30.00,10.0,NW,9.2,17.3,N/A,,Clear,310,2013-02-16 23:14:00
6:54 PM,23.0,15.8,74,30.02,10.0,WNW,12.7,16.1,N/A,,Mostly Cloudy,290,2013-02-16 23:54:00
7:34 PM,21.2,14.0,74,30.03,10.0,WNW,8.1,-,N/A,,Clear,300,2013-02-17 00:34:00
8:14 PM,21.2,14.0,74,30.03,10.0,WNW,10.4,-,N/A,,Mostly Cloudy,290,2013-02-17 01:14:00
8:35 PM,19.4,14.0,80,30.03,10.0,WNW,11.5,-,N/A,,Overcast,300,2013-02-17 01:35:00
8:55 PM,19.4,14.0,80,30.03,10.0,NW,10.4,-,N/A,,Mostly Cloudy,310,2013-02-17 01:55:00
9:15 PM,19.4,15.8,86,30.03,10.0,WNW,11.5,16.1,N/A,,Mostly Cloudy,290,2013-02-17 02:15:00
9:55 PM,19.4,14.0,80,30.04,10.0,WNW,12.7,17.3,N/A,,Overcast,300,2013-02-17 02:55:00
10:35 PM,19.4,14.0,80,30.03,10.0,WNW,10.4,-,N/A,,Scattered Clouds,290,2013-02-17 03:35:00
10:55 PM,17.6,14.0,86,30.04,10.0,WNW,9.2,-,N/A,,Clear,290,2013-02-17 03:55:00
11:15 PM,17.6,14.0,86,30.03,10.0,WNW,10.4,-,N/A,,Clear,300,2013-02-17 04:15:00
11:35 PM,17.6,14.0,86,30.03,10.0,WNW,11.5,16.1,N/A,,Scattered Clouds,300,2013-02-17 04:35:00